sensor_id;sensor_type;location;lat;lon;timestamp;P1;durP1;ratioP1;P2;durP2;ratioP2
12838;SDS011;6486;51.034;5.262;2023-02-28T00:01:24;5.10;;;1.87;;
12838;SDS011;6486;51.034;5.262;2023-02-28T00:03:51;2.60;;;1.90;;
12838;SDS011;6486;51.034;5.262;2023-02-28T00:06:16;1.93;;;0.90;;
12838;SDS011;6486;51.034;5.262;2023-02-28T00:08:42;1.43;;;1.33;;
12838;SDS011;6486;51.034;5.262;2023-02-28T00:11:09;1.33;;;1.23;;
12838;SDS011;6486;51.034;5.262;2023-02-28T00:13:37;2.00;;;1.07;;
12838;SDS011;6486;51.034;5.262;2023-02-28T00:16:05;2.17;;;1.50;;
12838;SDS011;6486;51.034;5.262;2023-02-28T00:18:34;6.63;;;1.23;;
12838;SDS011;6486;51.034;5.262;2023-02-28T00:20:59;3.57;;;1.87;;
12838;SDS011;6486;51.034;5.262;2023-02-28T00:23:25;1.63;;;1.53;;
12838;SDS011;6486;51.034;5.262;2023-02-28T00:25:52;1.20;;;0.97;;
12838;SDS011;6486;51.034;5.262;2023-02-28T00:28:18;0.90;;;0.90;;
12838;SDS011;6486;51.034;5.262;2023-02-28T00:30:44;2.67;;;1.43;;
12838;SDS011;6486;51.034;5.262;2023-02-28T00:33:09;1.47;;;1.37;;
12838;SDS011;6486;51.034;5.262;2023-02-28T00:35:35;1.70;;;1.37;;
12838;SDS011;6486;51.034;5.262;2023-02-28T00:38:01;1.73;;;1.03;;
12838;SDS011;6486;51.034;5.262;2023-02-28T00:40:27;0.93;;;0.93;;
12838;SDS011;6486;51.034;5.262;2023-02-28T00:42:53;1.97;;;1.23;;
12838;SDS011;6486;51.034;5.262;2023-02-28T00:45:19;3.53;;;1.43;;
12838;SDS011;6486;51.034;5.262;2023-02-28T00:47:45;5.63;;;1.60;;
12838;SDS011;6486;51.034;5.262;2023-02-28T00:50:11;2.63;;;1.47;;
12838;SDS011;6486;51.034;5.262;2023-02-28T00:52:37;1.17;;;0.70;;
12838;SDS011;6486;51.034;5.262;2023-02-28T00:55:03;1.37;;;1.27;;
12838;SDS011;6486;51.034;5.262;2023-02-28T00:57:29;1.17;;;1.07;;
12838;SDS011;6486;51.034;5.262;2023-02-28T00:59:54;2.87;;;1.73;;
12838;SDS011;6486;51.034;5.262;2023-02-28T01:02:21;0.90;;;0.90;;
12838;SDS011;6486;51.034;5.262;2023-02-28T01:04:47;1.27;;;1.10;;
12838;SDS011;6486;51.034;5.262;2023-02-28T01:07:13;1.53;;;1.17;;
12838;SDS011;6486;51.034;5.262;2023-02-28T01:09:39;1.57;;;1.47;;
12838;SDS011;6486;51.034;5.262;2023-02-28T01:12:06;2.27;;;1.20;;
12838;SDS011;6486;51.034;5.262;2023-02-28T01:14:32;0.63;;;0.63;;
12838;SDS011;6486;51.034;5.262;2023-02-28T01:16:58;3.83;;;1.10;;
12838;SDS011;6486;51.034;5.262;2023-02-28T01:19:23;1.27;;;1.13;;
12838;SDS011;6486;51.034;5.262;2023-02-28T01:21:49;0.87;;;0.70;;
12838;SDS011;6486;51.034;5.262;2023-02-28T01:24:15;1.47;;;1.37;;
12838;SDS011;6486;51.034;5.262;2023-02-28T01:26:40;0.90;;;0.90;;
12838;SDS011;6486;51.034;5.262;2023-02-28T01:29:06;0.80;;;0.80;;
12838;SDS011;6486;51.034;5.262;2023-02-28T01:31:31;1.33;;;0.80;;
12838;SDS011;6486;51.034;5.262;2023-02-28T01:33:57;3.90;;;0.80;;
12838;SDS011;6486;51.034;5.262;2023-02-28T01:36:23;1.03;;;0.93;;
12838;SDS011;6486;51.034;5.262;2023-02-28T01:38:50;1.47;;;1.20;;
12838;SDS011;6486;51.034;5.262;2023-02-28T01:41:22;2.07;;;1.50;;
12838;SDS011;6486;51.034;5.262;2023-02-28T01:43:54;2.37;;;1.17;;
12838;SDS011;6486;51.034;5.262;2023-02-28T01:46:20;2.13;;;1.10;;
12838;SDS011;6486;51.034;5.262;2023-02-28T01:51:22;2.30;;;1.70;;
12838;SDS011;6486;51.034;5.262;2023-02-28T01:54:13;1.97;;;1.03;;
12838;SDS011;6486;51.034;5.262;2023-02-28T01:56:49;1.90;;;1.20;;
12838;SDS011;6486;51.034;5.262;2023-02-28T01:59:33;2.33;;;1.20;;
12838;SDS011;6486;51.034;5.262;2023-02-28T02:02:11;1.00;;;0.90;;
12838;SDS011;6486;51.034;5.262;2023-02-28T02:04:38;2.43;;;1.43;;
12838;SDS011;6486;51.034;5.262;2023-02-28T02:07:11;1.47;;;1.33;;
12838;SDS011;6486;51.034;5.262;2023-02-28T02:09:37;1.53;;;1.20;;
12838;SDS011;6486;51.034;5.262;2023-02-28T02:12:06;1.07;;;0.90;;
12838;SDS011;6486;51.034;5.262;2023-02-28T02:14:57;4.70;;;1.90;;
12838;SDS011;6486;51.034;5.262;2023-02-28T02:17:38;1.50;;;1.40;;
12838;SDS011;6486;51.034;5.262;2023-02-28T02:25:56;1.37;;;1.27;;
12838;SDS011;6486;51.034;5.262;2023-02-28T02:31:32;3.07;;;1.50;;
12838;SDS011;6486;51.034;5.262;2023-02-28T02:34:23;2.57;;;1.23;;
12838;SDS011;6486;51.034;5.262;2023-02-28T02:39:49;4.43;;;2.03;;
12838;SDS011;6486;51.034;5.262;2023-02-28T02:42:27;2.30;;;1.13;;
12838;SDS011;6486;51.034;5.262;2023-02-28T02:45:01;3.43;;;2.60;;
12838;SDS011;6486;51.034;5.262;2023-02-28T02:47:41;1.57;;;1.37;;
12838;SDS011;6486;51.034;5.262;2023-02-28T02:50:11;2.60;;;1.70;;
12838;SDS011;6486;51.034;5.262;2023-02-28T02:52:44;3.67;;;1.60;;
12838;SDS011;6486;51.034;5.262;2023-02-28T02:55:14;2.70;;;1.73;;
12838;SDS011;6486;51.034;5.262;2023-02-28T02:58:02;1.80;;;1.17;;
12838;SDS011;6486;51.034;5.262;2023-02-28T03:00:34;1.23;;;0.80;;
12838;SDS011;6486;51.034;5.262;2023-02-28T03:03:03;2.87;;;1.57;;
12838;SDS011;6486;51.034;5.262;2023-02-28T03:05:31;3.80;;;1.83;;
12838;SDS011;6486;51.034;5.262;2023-02-28T03:08:04;1.20;;;1.10;;
12838;SDS011;6486;51.034;5.262;2023-02-28T03:10:36;3.20;;;1.97;;
12838;SDS011;6486;51.034;5.262;2023-02-28T03:16:05;2.03;;;1.30;;
12838;SDS011;6486;51.034;5.262;2023-02-28T03:21:32;3.83;;;2.23;;
12838;SDS011;6486;51.034;5.262;2023-02-28T03:24:10;1.90;;;1.63;;
12838;SDS011;6486;51.034;5.262;2023-02-28T03:26:43;8.67;;;2.83;;
12838;SDS011;6486;51.034;5.262;2023-02-28T03:29:16;1.27;;;1.07;;
12838;SDS011;6486;51.034;5.262;2023-02-28T03:31:58;3.70;;;1.60;;
12838;SDS011;6486;51.034;5.262;2023-02-28T03:34:31;4.37;;;2.70;;
12838;SDS011;6486;51.034;5.262;2023-02-28T03:37:05;3.23;;;2.03;;
12838;SDS011;6486;51.034;5.262;2023-02-28T03:39:39;1.83;;;1.33;;
12838;SDS011;6486;51.034;5.262;2023-02-28T03:42:27;1.87;;;1.67;;
12838;SDS011;6486;51.034;5.262;2023-02-28T03:45:00;0.93;;;0.87;;
12838;SDS011;6486;51.034;5.262;2023-02-28T03:47:36;3.23;;;1.63;;
12838;SDS011;6486;51.034;5.262;2023-02-28T03:50:07;1.80;;;1.40;;
12838;SDS011;6486;51.034;5.262;2023-02-28T03:52:39;3.70;;;2.23;;
12838;SDS011;6486;51.034;5.262;2023-02-28T03:55:10;4.30;;;2.03;;
12838;SDS011;6486;51.034;5.262;2023-02-28T03:57:44;6.70;;;2.03;;
12838;SDS011;6486;51.034;5.262;2023-02-28T04:00:19;3.00;;;2.17;;
12838;SDS011;6486;51.034;5.262;2023-02-28T04:02:50;5.77;;;2.27;;
12838;SDS011;6486;51.034;5.262;2023-02-28T04:05:18;4.67;;;2.00;;
12838;SDS011;6486;51.034;5.262;2023-02-28T04:07:44;2.80;;;2.23;;
12838;SDS011;6486;51.034;5.262;2023-02-28T04:10:10;1.80;;;1.63;;
12838;SDS011;6486;51.034;5.262;2023-02-28T04:12:37;1.83;;;1.53;;
12838;SDS011;6486;51.034;5.262;2023-02-28T04:15:03;1.90;;;1.37;;
12838;SDS011;6486;51.034;5.262;2023-02-28T04:17:30;5.93;;;2.33;;
12838;SDS011;6486;51.034;5.262;2023-02-28T04:19:56;3.43;;;2.53;;
12838;SDS011;6486;51.034;5.262;2023-02-28T04:22:22;2.57;;;1.83;;
12838;SDS011;6486;51.034;5.262;2023-02-28T04:24:51;3.73;;;2.27;;
12838;SDS011;6486;51.034;5.262;2023-02-28T04:27:18;2.07;;;1.80;;
12838;SDS011;6486;51.034;5.262;2023-02-28T04:29:44;1.50;;;1.40;;
12838;SDS011;6486;51.034;5.262;2023-02-28T04:32:10;2.80;;;1.77;;
12838;SDS011;6486;51.034;5.262;2023-02-28T04:34:36;3.70;;;1.70;;
12838;SDS011;6486;51.034;5.262;2023-02-28T04:37:02;1.50;;;1.37;;
12838;SDS011;6486;51.034;5.262;2023-02-28T04:39:28;1.73;;;1.60;;
12838;SDS011;6486;51.034;5.262;2023-02-28T04:41:54;2.80;;;1.43;;
12838;SDS011;6486;51.034;5.262;2023-02-28T04:44:20;1.70;;;1.60;;
12838;SDS011;6486;51.034;5.262;2023-02-28T04:46:47;5.23;;;1.80;;
12838;SDS011;6486;51.034;5.262;2023-02-28T04:49:14;2.90;;;1.60;;
12838;SDS011;6486;51.034;5.262;2023-02-28T04:51:40;3.77;;;1.33;;
12838;SDS011;6486;51.034;5.262;2023-02-28T04:54:06;3.03;;;2.13;;
12838;SDS011;6486;51.034;5.262;2023-02-28T04:56:32;3.43;;;1.90;;
12838;SDS011;6486;51.034;5.262;2023-02-28T04:58:57;2.10;;;1.90;;
12838;SDS011;6486;51.034;5.262;2023-02-28T05:01:27;2.97;;;1.60;;
12838;SDS011;6486;51.034;5.262;2023-02-28T05:03:58;3.90;;;1.93;;
12838;SDS011;6486;51.034;5.262;2023-02-28T05:06:26;3.23;;;1.80;;
12838;SDS011;6486;51.034;5.262;2023-02-28T05:08:53;4.53;;;2.17;;
12838;SDS011;6486;51.034;5.262;2023-02-28T05:11:24;3.23;;;1.53;;
12838;SDS011;6486;51.034;5.262;2023-02-28T05:14:00;3.57;;;2.10;;
12838;SDS011;6486;51.034;5.262;2023-02-28T05:16:27;2.43;;;1.70;;
12838;SDS011;6486;51.034;5.262;2023-02-28T05:18:52;1.37;;;1.17;;
12838;SDS011;6486;51.034;5.262;2023-02-28T05:23:52;2.43;;;2.10;;
12838;SDS011;6486;51.034;5.262;2023-02-28T05:26:18;2.77;;;1.73;;
12838;SDS011;6486;51.034;5.262;2023-02-28T05:28:44;3.33;;;1.73;;
12838;SDS011;6486;51.034;5.262;2023-02-28T05:31:11;2.47;;;1.37;;
12838;SDS011;6486;51.034;5.262;2023-02-28T05:33:37;2.20;;;2.10;;
12838;SDS011;6486;51.034;5.262;2023-02-28T05:36:03;1.40;;;1.30;;
12838;SDS011;6486;51.034;5.262;2023-02-28T05:38:29;2.40;;;2.13;;
12838;SDS011;6486;51.034;5.262;2023-02-28T05:40:54;3.53;;;2.03;;
12838;SDS011;6486;51.034;5.262;2023-02-28T05:43:21;4.27;;;2.17;;
12838;SDS011;6486;51.034;5.262;2023-02-28T05:45:47;2.27;;;1.90;;
12838;SDS011;6486;51.034;5.262;2023-02-28T05:48:12;3.00;;;1.83;;
12838;SDS011;6486;51.034;5.262;2023-02-28T05:50:38;2.13;;;1.93;;
12838;SDS011;6486;51.034;5.262;2023-02-28T05:53:03;3.10;;;1.70;;
12838;SDS011;6486;51.034;5.262;2023-02-28T05:55:29;3.70;;;1.63;;
12838;SDS011;6486;51.034;5.262;2023-02-28T05:57:55;2.93;;;2.10;;
12838;SDS011;6486;51.034;5.262;2023-02-28T06:00:21;1.27;;;1.27;;
12838;SDS011;6486;51.034;5.262;2023-02-28T06:02:47;1.47;;;1.30;;
12838;SDS011;6486;51.034;5.262;2023-02-28T06:05:14;2.03;;;1.60;;
12838;SDS011;6486;51.034;5.262;2023-02-28T06:07:41;2.90;;;2.23;;
12838;SDS011;6486;51.034;5.262;2023-02-28T06:10:08;2.17;;;2.07;;
12838;SDS011;6486;51.034;5.262;2023-02-28T06:12:35;5.63;;;2.87;;
12838;SDS011;6486;51.034;5.262;2023-02-28T06:15:00;5.07;;;1.83;;
12838;SDS011;6486;51.034;5.262;2023-02-28T06:17:26;4.63;;;2.17;;
12838;SDS011;6486;51.034;5.262;2023-02-28T06:19:51;4.13;;;2.40;;
12838;SDS011;6486;51.034;5.262;2023-02-28T06:22:17;1.33;;;1.23;;
12838;SDS011;6486;51.034;5.262;2023-02-28T06:24:43;5.43;;;1.97;;
12838;SDS011;6486;51.034;5.262;2023-02-28T06:27:08;3.97;;;2.43;;
12838;SDS011;6486;51.034;5.262;2023-02-28T06:29:34;4.83;;;3.03;;
12838;SDS011;6486;51.034;5.262;2023-02-28T06:32:00;3.10;;;1.87;;
12838;SDS011;6486;51.034;5.262;2023-02-28T06:34:26;3.87;;;1.43;;
12838;SDS011;6486;51.034;5.262;2023-02-28T06:36:52;4.37;;;2.17;;
12838;SDS011;6486;51.034;5.262;2023-02-28T06:39:18;1.83;;;1.63;;
12838;SDS011;6486;51.034;5.262;2023-02-28T06:41:44;5.50;;;2.80;;
12838;SDS011;6486;51.034;5.262;2023-02-28T06:44:15;2.97;;;2.27;;
12838;SDS011;6486;51.034;5.262;2023-02-28T06:46:42;2.83;;;1.53;;
12838;SDS011;6486;51.034;5.262;2023-02-28T06:49:10;3.23;;;2.10;;
12838;SDS011;6486;51.034;5.262;2023-02-28T06:51:37;2.93;;;2.33;;
12838;SDS011;6486;51.034;5.262;2023-02-28T06:54:04;3.50;;;2.47;;
12838;SDS011;6486;51.034;5.262;2023-02-28T06:56:30;6.43;;;2.47;;
12838;SDS011;6486;51.034;5.262;2023-02-28T06:58:56;2.53;;;2.33;;
12838;SDS011;6486;51.034;5.262;2023-02-28T07:01:22;3.03;;;1.67;;
12838;SDS011;6486;51.034;5.262;2023-02-28T07:03:50;9.73;;;3.10;;
12838;SDS011;6486;51.034;5.262;2023-02-28T07:06:18;2.73;;;2.10;;
12838;SDS011;6486;51.034;5.262;2023-02-28T07:08:44;3.80;;;2.07;;
12838;SDS011;6486;51.034;5.262;2023-02-28T07:11:10;5.73;;;2.57;;
12838;SDS011;6486;51.034;5.262;2023-02-28T07:13:36;6.87;;;2.30;;
12838;SDS011;6486;51.034;5.262;2023-02-28T07:16:03;5.57;;;2.87;;
12838;SDS011;6486;51.034;5.262;2023-02-28T07:18:30;3.00;;;2.57;;
12838;SDS011;6486;51.034;5.262;2023-02-28T07:20:56;4.33;;;2.23;;
12838;SDS011;6486;51.034;5.262;2023-02-28T07:23:23;2.20;;;1.87;;
12838;SDS011;6486;51.034;5.262;2023-02-28T07:25:49;3.23;;;1.77;;
12838;SDS011;6486;51.034;5.262;2023-02-28T07:28:15;2.10;;;1.90;;
12838;SDS011;6486;51.034;5.262;2023-02-28T07:30:41;3.47;;;3.10;;
12838;SDS011;6486;51.034;5.262;2023-02-28T07:33:07;4.13;;;1.97;;
12838;SDS011;6486;51.034;5.262;2023-02-28T07:35:33;3.10;;;2.37;;
12838;SDS011;6486;51.034;5.262;2023-02-28T07:37:59;2.57;;;1.93;;
12838;SDS011;6486;51.034;5.262;2023-02-28T07:40:25;2.37;;;1.73;;
12838;SDS011;6486;51.034;5.262;2023-02-28T07:42:51;4.33;;;2.13;;
12838;SDS011;6486;51.034;5.262;2023-02-28T07:45:17;2.40;;;2.20;;
12838;SDS011;6486;51.034;5.262;2023-02-28T07:47:43;2.00;;;1.20;;
12838;SDS011;6486;51.034;5.262;2023-02-28T07:50:10;15.40;;;2.07;;
12838;SDS011;6486;51.034;5.262;2023-02-28T07:52:37;1.60;;;1.50;;
12838;SDS011;6486;51.034;5.262;2023-02-28T07:55:04;1.10;;;1.10;;
12838;SDS011;6486;51.034;5.262;2023-02-28T07:57:31;1.77;;;1.20;;
12838;SDS011;6486;51.034;5.262;2023-02-28T07:59:57;3.17;;;1.47;;
12838;SDS011;6486;51.034;5.262;2023-02-28T08:02:23;5.63;;;2.27;;
12838;SDS011;6486;51.034;5.262;2023-02-28T08:04:48;4.77;;;1.83;;
12838;SDS011;6486;51.034;5.262;2023-02-28T08:07:14;1.70;;;1.43;;
12838;SDS011;6486;51.034;5.262;2023-02-28T08:09:41;1.00;;;0.97;;
12838;SDS011;6486;51.034;5.262;2023-02-28T08:12:08;3.03;;;2.47;;
12838;SDS011;6486;51.034;5.262;2023-02-28T08:14:35;1.20;;;1.20;;
12838;SDS011;6486;51.034;5.262;2023-02-28T08:17:01;1.97;;;1.43;;
12838;SDS011;6486;51.034;5.262;2023-02-28T08:19:26;2.27;;;1.17;;
12838;SDS011;6486;51.034;5.262;2023-02-28T08:21:53;1.37;;;1.00;;
12838;SDS011;6486;51.034;5.262;2023-02-28T08:24:18;2.07;;;1.70;;
12838;SDS011;6486;51.034;5.262;2023-02-28T08:26:44;28.10;;;2.30;;
12838;SDS011;6486;51.034;5.262;2023-02-28T08:29:10;0.73;;;0.70;;
12838;SDS011;6486;51.034;5.262;2023-02-28T08:31:35;1.77;;;1.67;;
12838;SDS011;6486;51.034;5.262;2023-02-28T08:34:19;1.73;;;1.13;;
12838;SDS011;6486;51.034;5.262;2023-02-28T08:36:45;1.63;;;1.17;;
12838;SDS011;6486;51.034;5.262;2023-02-28T08:39:11;1.10;;;1.10;;
12838;SDS011;6486;51.034;5.262;2023-02-28T08:41:37;1.37;;;1.00;;
12838;SDS011;6486;51.034;5.262;2023-02-28T08:44:02;2.60;;;1.37;;
12838;SDS011;6486;51.034;5.262;2023-02-28T08:46:28;4.47;;;1.60;;
12838;SDS011;6486;51.034;5.262;2023-02-28T08:48:55;1.07;;;0.97;;
12838;SDS011;6486;51.034;5.262;2023-02-28T08:51:24;1.20;;;1.20;;
12838;SDS011;6486;51.034;5.262;2023-02-28T08:53:53;2.00;;;1.47;;
12838;SDS011;6486;51.034;5.262;2023-02-28T08:56:24;1.20;;;1.10;;
12838;SDS011;6486;51.034;5.262;2023-02-28T08:58:50;1.47;;;1.17;;
12838;SDS011;6486;51.034;5.262;2023-02-28T09:01:17;1.23;;;1.00;;
12838;SDS011;6486;51.034;5.262;2023-02-28T09:03:45;1.20;;;0.80;;
12838;SDS011;6486;51.034;5.262;2023-02-28T09:06:13;1.47;;;1.40;;
12838;SDS011;6486;51.034;5.262;2023-02-28T09:08:39;1.73;;;1.63;;
12838;SDS011;6486;51.034;5.262;2023-02-28T09:11:05;3.10;;;1.67;;
12838;SDS011;6486;51.034;5.262;2023-02-28T09:13:31;1.50;;;1.40;;
12838;SDS011;6486;51.034;5.262;2023-02-28T09:15:58;0.90;;;0.70;;
12838;SDS011;6486;51.034;5.262;2023-02-28T09:18:25;1.73;;;1.00;;
12838;SDS011;6486;51.034;5.262;2023-02-28T09:20:51;1.07;;;1.03;;
12838;SDS011;6486;51.034;5.262;2023-02-28T09:23:17;0.80;;;0.70;;
12838;SDS011;6486;51.034;5.262;2023-02-28T09:25:47;1.07;;;0.50;;
12838;SDS011;6486;51.034;5.262;2023-02-28T09:28:15;0.60;;;0.47;;
12838;SDS011;6486;51.034;5.262;2023-02-28T09:30:41;2.23;;;0.90;;
12838;SDS011;6486;51.034;5.262;2023-02-28T09:33:09;1.10;;;1.00;;
12838;SDS011;6486;51.034;5.262;2023-02-28T09:35:35;0.97;;;0.47;;
12838;SDS011;6486;51.034;5.262;2023-02-28T09:38:02;1.43;;;0.93;;
12838;SDS011;6486;51.034;5.262;2023-02-28T09:40:29;0.80;;;0.80;;
12838;SDS011;6486;51.034;5.262;2023-02-28T09:42:56;0.90;;;0.80;;
12838;SDS011;6486;51.034;5.262;2023-02-28T09:45:36;1.27;;;1.17;;
12838;SDS011;6486;51.034;5.262;2023-02-28T09:48:12;0.83;;;0.83;;
12838;SDS011;6486;51.034;5.262;2023-02-28T09:50:52;0.67;;;0.67;;
12838;SDS011;6486;51.034;5.262;2023-02-28T09:53:28;0.83;;;0.83;;
12838;SDS011;6486;51.034;5.262;2023-02-28T09:55:59;0.77;;;0.77;;
12838;SDS011;6486;51.034;5.262;2023-02-28T10:01:12;0.53;;;0.53;;
12838;SDS011;6486;51.034;5.262;2023-02-28T10:03:55;2.57;;;1.03;;
12838;SDS011;6486;51.034;5.262;2023-02-28T10:06:32;1.33;;;0.97;;
12838;SDS011;6486;51.034;5.262;2023-02-28T10:09:10;1.40;;;0.93;;
12838;SDS011;6486;51.034;5.262;2023-02-28T10:11:50;0.40;;;0.40;;
12838;SDS011;6486;51.034;5.262;2023-02-28T10:14:18;0.87;;;0.70;;
12838;SDS011;6486;51.034;5.262;2023-02-28T10:16:48;2.80;;;0.77;;
12838;SDS011;6486;51.034;5.262;2023-02-28T10:19:34;0.20;;;0.20;;
12838;SDS011;6486;51.034;5.262;2023-02-28T10:24:51;0.53;;;0.53;;
12838;SDS011;6486;51.034;5.262;2023-02-28T10:27:19;3.67;;;1.27;;
12838;SDS011;6486;51.034;5.262;2023-02-28T10:29:46;0.70;;;0.70;;
12838;SDS011;6486;51.034;5.262;2023-02-28T10:32:18;1.10;;;1.03;;
12838;SDS011;6486;51.034;5.262;2023-02-28T10:38:00;3.43;;;1.60;;
12838;SDS011;6486;51.034;5.262;2023-02-28T10:40:35;0.50;;;0.50;;
12838;SDS011;6486;51.034;5.262;2023-02-28T10:43:02;0.53;;;0.53;;
12838;SDS011;6486;51.034;5.262;2023-02-28T10:45:37;2.20;;;0.50;;
12838;SDS011;6486;51.034;5.262;2023-02-28T10:58:25;1.03;;;1.00;;
12838;SDS011;6486;51.034;5.262;2023-02-28T11:00:52;0.47;;;0.43;;
12838;SDS011;6486;51.034;5.262;2023-02-28T11:05:58;3.20;;;0.73;;
12838;SDS011;6486;51.034;5.262;2023-02-28T11:08:29;0.53;;;0.30;;
12838;SDS011;6486;51.034;5.262;2023-02-28T11:10:55;0.97;;;0.53;;
12838;SDS011;6486;51.034;5.262;2023-02-28T11:13:32;0.20;;;0.20;;
12838;SDS011;6486;51.034;5.262;2023-02-28T11:16:00;0.50;;;0.50;;
12838;SDS011;6486;51.034;5.262;2023-02-28T11:18:36;0.47;;;0.23;;
12838;SDS011;6486;51.034;5.262;2023-02-28T11:21:28;0.20;;;0.20;;
12838;SDS011;6486;51.034;5.262;2023-02-28T11:24:06;0.70;;;0.40;;
12838;SDS011;6486;51.034;5.262;2023-02-28T11:26:47;2.03;;;0.50;;
12838;SDS011;6486;51.034;5.262;2023-02-28T11:29:20;0.57;;;0.57;;
12838;SDS011;6486;51.034;5.262;2023-02-28T11:32:16;0.50;;;0.50;;
12838;SDS011;6486;51.034;5.262;2023-02-28T11:34:45;0.13;;;0.13;;
12838;SDS011;6486;51.034;5.262;2023-02-28T11:37:13;1.53;;;0.37;;
12838;SDS011;6486;51.034;5.262;2023-02-28T11:39:44;0.77;;;0.50;;
12838;SDS011;6486;51.034;5.262;2023-02-28T11:45:12;0.30;;;0.30;;
12838;SDS011;6486;51.034;5.262;2023-02-28T11:53:01;2.30;;;0.70;;
12838;SDS011;6486;51.034;5.262;2023-02-28T11:58:05;0.30;;;0.30;;
12838;SDS011;6486;51.034;5.262;2023-02-28T12:06:13;1.67;;;0.60;;
12838;SDS011;6486;51.034;5.262;2023-02-28T12:17:06;1.37;;;0.70;;
12838;SDS011;6486;51.034;5.262;2023-02-28T12:22:28;0.30;;;0.30;;
12838;SDS011;6486;51.034;5.262;2023-02-28T12:27:43;0.67;;;0.50;;
12838;SDS011;6486;51.034;5.262;2023-02-28T12:35:55;1.63;;;0.70;;
12838;SDS011;6486;51.034;5.262;2023-02-28T12:38:23;0.50;;;0.50;;
12838;SDS011;6486;51.034;5.262;2023-02-28T12:41:00;4.33;;;0.60;;
12838;SDS011;6486;51.034;5.262;2023-02-28T12:43:55;0.90;;;0.60;;
12838;SDS011;6486;51.034;5.262;2023-02-28T12:46:31;0.40;;;0.40;;
12838;SDS011;6486;51.034;5.262;2023-02-28T12:49:08;1.17;;;0.50;;
12838;SDS011;6486;51.034;5.262;2023-02-28T12:51:42;0.63;;;0.63;;
12838;SDS011;6486;51.034;5.262;2023-02-28T12:54:15;1.80;;;1.03;;
12838;SDS011;6486;51.034;5.262;2023-02-28T12:59:43;0.33;;;0.33;;
12838;SDS011;6486;51.034;5.262;2023-02-28T13:05:10;0.87;;;0.40;;
12838;SDS011;6486;51.034;5.262;2023-02-28T13:10:58;0.40;;;0.40;;
12838;SDS011;6486;51.034;5.262;2023-02-28T13:13:24;0.57;;;0.57;;
12838;SDS011;6486;51.034;5.262;2023-02-28T13:15:59;0.40;;;0.40;;
12838;SDS011;6486;51.034;5.262;2023-02-28T13:18:30;0.93;;;0.83;;
12838;SDS011;6486;51.034;5.262;2023-02-28T13:21:09;0.40;;;0.40;;
12838;SDS011;6486;51.034;5.262;2023-02-28T13:50:15;0.90;;;0.90;;
12838;SDS011;6486;51.034;5.262;2023-02-28T14:06:36;1.20;;;1.20;;
12838;SDS011;6486;51.034;5.262;2023-02-28T14:11:41;0.50;;;0.50;;
12838;SDS011;6486;51.034;5.262;2023-02-28T14:14:09;0.67;;;0.60;;
12838;SDS011;6486;51.034;5.262;2023-02-28T14:16:55;3.13;;;1.33;;
12838;SDS011;6486;51.034;5.262;2023-02-28T14:19:26;0.43;;;0.43;;
12838;SDS011;6486;51.034;5.262;2023-02-28T14:27:37;1.53;;;0.70;;
12838;SDS011;6486;51.034;5.262;2023-02-28T14:36:14;0.80;;;0.60;;
12838;SDS011;6486;51.034;5.262;2023-02-28T14:39:19;4.07;;;1.27;;
12838;SDS011;6486;51.034;5.262;2023-02-28T14:41:50;1.27;;;0.90;;
12838;SDS011;6486;51.034;5.262;2023-02-28T14:44:20;2.93;;;1.77;;
12838;SDS011;6486;51.034;5.262;2023-02-28T14:46:52;1.60;;;0.40;;
12838;SDS011;6486;51.034;5.262;2023-02-28T14:49:27;1.60;;;1.10;;
12838;SDS011;6486;51.034;5.262;2023-02-28T14:54:38;0.63;;;0.40;;
12838;SDS011;6486;51.034;5.262;2023-02-28T14:57:04;0.60;;;0.60;;
12838;SDS011;6486;51.034;5.262;2023-02-28T14:59:32;0.50;;;0.40;;
12838;SDS011;6486;51.034;5.262;2023-02-28T15:04:58;0.33;;;0.33;;
12838;SDS011;6486;51.034;5.262;2023-02-28T15:07:25;0.60;;;0.50;;
12838;SDS011;6486;51.034;5.262;2023-02-28T15:12:36;0.47;;;0.47;;
12838;SDS011;6486;51.034;5.262;2023-02-28T15:15:04;1.47;;;0.63;;
12838;SDS011;6486;51.034;5.262;2023-02-28T15:17:31;0.40;;;0.40;;
12838;SDS011;6486;51.034;5.262;2023-02-28T15:19:57;2.47;;;0.83;;
12838;SDS011;6486;51.034;5.262;2023-02-28T15:22:31;0.40;;;0.40;;
12838;SDS011;6486;51.034;5.262;2023-02-28T15:25:02;0.40;;;0.40;;
12838;SDS011;6486;51.034;5.262;2023-02-28T15:27:31;3.07;;;0.70;;
12838;SDS011;6486;51.034;5.262;2023-02-28T15:29:59;1.33;;;1.00;;
12838;SDS011;6486;51.034;5.262;2023-02-28T15:32:33;0.50;;;0.47;;
12838;SDS011;6486;51.034;5.262;2023-02-28T15:35:25;1.13;;;0.73;;
12838;SDS011;6486;51.034;5.262;2023-02-28T15:37:54;1.30;;;1.20;;
12838;SDS011;6486;51.034;5.262;2023-02-28T15:40:41;0.47;;;0.30;;
12838;SDS011;6486;51.034;5.262;2023-02-28T15:45:52;0.93;;;0.80;;
12838;SDS011;6486;51.034;5.262;2023-02-28T15:48:20;0.43;;;0.30;;
12838;SDS011;6486;51.034;5.262;2023-02-28T15:50:58;0.50;;;0.47;;
12838;SDS011;6486;51.034;5.262;2023-02-28T15:53:33;0.50;;;0.50;;
12838;SDS011;6486;51.034;5.262;2023-02-28T15:56:07;2.73;;;0.93;;
12838;SDS011;6486;51.034;5.262;2023-02-28T15:59:01;0.47;;;0.47;;
12838;SDS011;6486;51.034;5.262;2023-02-28T16:01:32;1.47;;;1.07;;
12838;SDS011;6486;51.034;5.262;2023-02-28T16:04:03;2.50;;;0.67;;
12838;SDS011;6486;51.034;5.262;2023-02-28T16:06:37;0.50;;;0.50;;
12838;SDS011;6486;51.034;5.262;2023-02-28T16:09:09;1.90;;;0.97;;
12838;SDS011;6486;51.034;5.262;2023-02-28T16:11:38;0.97;;;0.50;;
12838;SDS011;6486;51.034;5.262;2023-02-28T16:14:10;0.77;;;0.47;;
12838;SDS011;6486;51.034;5.262;2023-02-28T16:16:41;1.30;;;0.63;;
12838;SDS011;6486;51.034;5.262;2023-02-28T16:19:11;0.90;;;0.50;;
12838;SDS011;6486;51.034;5.262;2023-02-28T16:21:37;0.57;;;0.57;;
12838;SDS011;6486;51.034;5.262;2023-02-28T16:24:02;0.80;;;0.80;;
12838;SDS011;6486;51.034;5.262;2023-02-28T16:26:28;0.50;;;0.50;;
12838;SDS011;6486;51.034;5.262;2023-02-28T16:28:54;1.30;;;0.90;;
12838;SDS011;6486;51.034;5.262;2023-02-28T16:31:20;4.43;;;1.70;;
12838;SDS011;6486;51.034;5.262;2023-02-28T16:33:46;0.60;;;0.60;;
12838;SDS011;6486;51.034;5.262;2023-02-28T16:36:13;0.67;;;0.67;;
12838;SDS011;6486;51.034;5.262;2023-02-28T16:38:44;1.33;;;0.53;;
12838;SDS011;6486;51.034;5.262;2023-02-28T16:41:14;1.30;;;1.13;;
12838;SDS011;6486;51.034;5.262;2023-02-28T16:43:44;0.67;;;0.67;;
12838;SDS011;6486;51.034;5.262;2023-02-28T16:46:12;3.10;;;1.37;;
12838;SDS011;6486;51.034;5.262;2023-02-28T16:48:38;0.70;;;0.70;;
12838;SDS011;6486;51.034;5.262;2023-02-28T16:51:06;0.50;;;0.50;;
12838;SDS011;6486;51.034;5.262;2023-02-28T16:53:38;1.27;;;0.80;;
12838;SDS011;6486;51.034;5.262;2023-02-28T16:56:04;1.17;;;1.07;;
12838;SDS011;6486;51.034;5.262;2023-02-28T16:58:31;0.93;;;0.63;;
12838;SDS011;6486;51.034;5.262;2023-02-28T17:01:00;1.57;;;1.03;;
12838;SDS011;6486;51.034;5.262;2023-02-28T17:03:27;1.57;;;0.60;;
12838;SDS011;6486;51.034;5.262;2023-02-28T17:05:54;1.80;;;0.77;;
12838;SDS011;6486;51.034;5.262;2023-02-28T17:08:20;0.80;;;0.80;;
12838;SDS011;6486;51.034;5.262;2023-02-28T17:10:46;2.30;;;0.97;;
12838;SDS011;6486;51.034;5.262;2023-02-28T17:13:11;1.47;;;1.37;;
12838;SDS011;6486;51.034;5.262;2023-02-28T17:15:37;1.33;;;1.17;;
12838;SDS011;6486;51.034;5.262;2023-02-28T17:18:04;1.90;;;1.27;;
12838;SDS011;6486;51.034;5.262;2023-02-28T17:20:31;3.47;;;0.90;;
12838;SDS011;6486;51.034;5.262;2023-02-28T17:22:57;0.90;;;0.80;;
12838;SDS011;6486;51.034;5.262;2023-02-28T17:25:22;1.60;;;0.87;;
12838;SDS011;6486;51.034;5.262;2023-02-28T17:27:49;0.80;;;0.80;;
12838;SDS011;6486;51.034;5.262;2023-02-28T17:30:17;1.37;;;1.27;;
12838;SDS011;6486;51.034;5.262;2023-02-28T17:32:48;0.70;;;0.70;;
12838;SDS011;6486;51.034;5.262;2023-02-28T17:35:14;2.73;;;1.53;;
12838;SDS011;6486;51.034;5.262;2023-02-28T17:37:41;1.00;;;0.87;;
12838;SDS011;6486;51.034;5.262;2023-02-28T17:40:09;1.33;;;0.57;;
12838;SDS011;6486;51.034;5.262;2023-02-28T17:42:52;1.53;;;1.33;;
12838;SDS011;6486;51.034;5.262;2023-02-28T17:45:20;1.20;;;0.90;;
12838;SDS011;6486;51.034;5.262;2023-02-28T17:47:46;1.70;;;1.07;;
12838;SDS011;6486;51.034;5.262;2023-02-28T17:50:14;1.13;;;1.07;;